sensor_id;sensor_type;location;lat;lon;timestamp;P1;durP1;ratioP1;P2;durP2;ratioP2
1747;SDS011;871;47.034;15.394;2022-12-13T05:02:33;38.10;;;6.80;;
1747;SDS011;871;47.034;15.394;2022-12-13T05:04:59;38.20;;;8.65;;
1747;SDS011;871;47.034;15.394;2022-12-13T05:07:25;35.25;;;6.70;;
1747;SDS011;871;47.034;15.394;2022-12-13T05:09:52;37.00;;;7.10;;
1747;SDS011;871;47.034;15.394;2022-12-13T05:12:18;42.15;;;9.73;;
1747;SDS011;871;47.034;15.394;2022-12-13T05:14:44;46.90;;;10.68;;
1747;SDS011;871;47.034;15.394;2022-12-13T05:17:10;38.95;;;8.18;;
1747;SDS011;871;47.034;15.394;2022-12-13T05:19:36;45.55;;;8.48;;
1747;SDS011;871;47.034;15.394;2022-12-13T05:22:02;41.30;;;8.52;;
1747;SDS011;871;47.034;15.394;2022-12-13T05:24:29;39.60;;;5.45;;
1747;SDS011;871;47.034;15.394;2022-12-13T05:26:56;46.13;;;8.20;;
1747;SDS011;871;47.034;15.394;2022-12-13T05:29:22;44.97;;;8.25;;
1747;SDS011;871;47.034;15.394;2022-12-13T05:31:48;40.40;;;6.72;;
1747;SDS011;871;47.034;15.394;2022-12-13T05:34:15;44.15;;;7.70;;
1747;SDS011;871;47.034;15.394;2022-12-13T05:36:41;41.35;;;6.55;;
1747;SDS011;871;47.034;15.394;2022-12-13T05:39:07;43.85;;;6.63;;
1747;SDS011;871;47.034;15.394;2022-12-13T05:41:33;42.63;;;6.50;;
1747;SDS011;871;47.034;15.394;2022-12-13T05:44:00;38.30;;;5.97;;
1747;SDS011;871;47.034;15.394;2022-12-13T05:46:27;42.08;;;6.00;;
1747;SDS011;871;47.034;15.394;2022-12-13T05:48:53;43.17;;;7.40;;
1747;SDS011;871;47.034;15.394;2022-12-13T05:51:19;40.53;;;5.85;;
1747;SDS011;871;47.034;15.394;2022-12-13T05:53:45;41.92;;;6.63;;
1747;SDS011;871;47.034;15.394;2022-12-13T05:56:12;39.20;;;5.43;;
1747;SDS011;871;47.034;15.394;2022-12-13T05:58:39;42.03;;;6.75;;
1747;SDS011;871;47.034;15.394;2022-12-13T06:01:06;39.85;;;5.57;;
1747;SDS011;871;47.034;15.394;2022-12-13T06:03:32;42.67;;;7.30;;
1747;SDS011;871;47.034;15.394;2022-12-13T06:06:02;41.15;;;5.65;;
1747;SDS011;871;47.034;15.394;2022-12-13T06:08:28;44.95;;;7.78;;
1747;SDS011;871;47.034;15.394;2022-12-13T06:10:55;44.33;;;6.68;;
1747;SDS011;871;47.034;15.394;2022-12-13T06:13:22;40.75;;;7.30;;
1747;SDS011;871;47.034;15.394;2022-12-13T06:15:48;45.55;;;5.78;;
1747;SDS011;871;47.034;15.394;2022-12-13T06:18:15;49.35;;;6.63;;
1747;SDS011;871;47.034;15.394;2022-12-13T06:20:41;38.85;;;5.70;;
1747;SDS011;871;47.034;15.394;2022-12-13T06:23:07;41.35;;;6.38;;
1747;SDS011;871;47.034;15.394;2022-12-13T06:25:34;45.95;;;7.70;;
1747;SDS011;871;47.034;15.394;2022-12-13T06:28:00;43.22;;;7.25;;
1747;SDS011;871;47.034;15.394;2022-12-13T06:30:30;46.05;;;7.65;;
1747;SDS011;871;47.034;15.394;2022-12-13T06:32:56;40.65;;;6.90;;
1747;SDS011;871;47.034;15.394;2022-12-13T06:35:22;47.80;;;8.90;;
1747;SDS011;871;47.034;15.394;2022-12-13T06:37:51;44.20;;;9.68;;
1747;SDS011;871;47.034;15.394;2022-12-13T06:40:17;47.50;;;7.93;;
1747;SDS011;871;47.034;15.394;2022-12-13T06:42:43;47.28;;;9.13;;
1747;SDS011;871;47.034;15.394;2022-12-13T06:45:09;59.75;;;13.30;;
1747;SDS011;871;47.034;15.394;2022-12-13T06:47:35;47.60;;;10.65;;
1747;SDS011;871;47.034;15.394;2022-12-13T06:50:02;55.95;;;13.82;;
1747;SDS011;871;47.034;15.394;2022-12-13T06:52:28;48.20;;;9.15;;
1747;SDS011;871;47.034;15.394;2022-12-13T06:54:54;48.65;;;9.63;;
1747;SDS011;871;47.034;15.394;2022-12-13T06:57:21;52.25;;;9.13;;
1747;SDS011;871;47.034;15.394;2022-12-13T06:59:48;51.97;;;11.82;;
1747;SDS011;871;47.034;15.394;2022-12-13T07:02:14;56.50;;;10.95;;
1747;SDS011;871;47.034;15.394;2022-12-13T07:04:40;47.47;;;8.68;;
1747;SDS011;871;47.034;15.394;2022-12-13T07:07:07;48.00;;;8.05;;
1747;SDS011;871;47.034;15.394;2022-12-13T07:09:34;46.47;;;6.85;;
1747;SDS011;871;47.034;15.394;2022-12-13T07:12:00;44.90;;;7.13;;
1747;SDS011;871;47.034;15.394;2022-12-13T07:14:26;45.25;;;9.00;;
1747;SDS011;871;47.034;15.394;2022-12-13T07:16:52;46.25;;;8.75;;
1747;SDS011;871;47.034;15.394;2022-12-13T07:19:18;45.63;;;7.53;;
1747;SDS011;871;47.034;15.394;2022-12-13T07:21:45;48.45;;;7.72;;
1747;SDS011;871;47.034;15.394;2022-12-13T07:24:11;43.75;;;7.45;;
1747;SDS011;871;47.034;15.394;2022-12-13T07:26:37;41.85;;;7.45;;
1747;SDS011;871;47.034;15.394;2022-12-13T07:29:03;47.17;;;9.35;;
1747;SDS011;871;47.034;15.394;2022-12-13T07:31:29;43.85;;;8.35;;
1747;SDS011;871;47.034;15.394;2022-12-13T07:33:56;48.83;;;10.82;;
1747;SDS011;871;47.034;15.394;2022-12-13T07:36:23;51.35;;;11.00;;
1747;SDS011;871;47.034;15.394;2022-12-13T07:38:50;47.25;;;9.77;;
1747;SDS011;871;47.034;15.394;2022-12-13T07:41:16;48.67;;;9.57;;
1747;SDS011;871;47.034;15.394;2022-12-13T07:43:42;48.85;;;9.23;;
1747;SDS011;871;47.034;15.394;2022-12-13T07:46:08;46.95;;;9.25;;
1747;SDS011;871;47.034;15.394;2022-12-13T07:48:35;44.45;;;9.70;;
1747;SDS011;871;47.034;15.394;2022-12-13T07:51:02;44.58;;;8.82;;
1747;SDS011;871;47.034;15.394;2022-12-13T07:53:29;50.65;;;11.30;;
1747;SDS011;871;47.034;15.394;2022-12-13T07:55:55;60.67;;;12.82;;
1747;SDS011;871;47.034;15.394;2022-12-13T07:58:21;59.65;;;12.93;;
1747;SDS011;871;47.034;15.394;2022-12-13T08:00:47;49.80;;;10.63;;
1747;SDS011;871;47.034;15.394;2022-12-13T08:03:13;53.83;;;11.40;;
1747;SDS011;871;47.034;15.394;2022-12-13T08:05:39;53.13;;;12.32;;
1747;SDS011;871;47.034;15.394;2022-12-13T08:08:06;51.80;;;12.15;;
1747;SDS011;871;47.034;15.394;2022-12-13T08:10:33;56.35;;;13.65;;
1747;SDS011;871;47.034;15.394;2022-12-13T08:13:02;49.83;;;11.85;;
1747;SDS011;871;47.034;15.394;2022-12-13T08:15:30;50.83;;;11.07;;
1747;SDS011;871;47.034;15.394;2022-12-13T08:17:56;47.78;;;8.30;;
1747;SDS011;871;47.034;15.394;2022-12-13T08:20:25;47.10;;;9.10;;
1747;SDS011;871;47.034;15.394;2022-12-13T08:22:54;55.10;;;8.05;;
1747;SDS011;871;47.034;15.394;2022-12-13T08:25:20;44.95;;;7.93;;
1747;SDS011;871;47.034;15.394;2022-12-13T08:27:46;46.47;;;8.43;;
1747;SDS011;871;47.034;15.394;2022-12-13T08:30:12;42.92;;;6.13;;
1747;SDS011;871;47.034;15.394;2022-12-13T08:32:40;45.30;;;8.95;;
1747;SDS011;871;47.034;15.394;2022-12-13T08:35:06;42.85;;;7.03;;
1747;SDS011;871;47.034;15.394;2022-12-13T08:37:32;48.00;;;7.85;;
1747;SDS011;871;47.034;15.394;2022-12-13T08:39:58;52.03;;;10.75;;
1747;SDS011;871;47.034;15.394;2022-12-13T08:42:25;50.10;;;7.70;;
1747;SDS011;871;47.034;15.394;2022-12-13T08:44:51;44.45;;;8.50;;
1747;SDS011;871;47.034;15.394;2022-12-13T08:47:21;44.17;;;6.43;;
1747;SDS011;871;47.034;15.394;2022-12-13T08:49:49;48.10;;;7.28;;
1747;SDS011;871;47.034;15.394;2022-12-13T08:52:15;53.17;;;9.05;;
1747;SDS011;871;47.034;15.394;2022-12-13T08:54:41;48.00;;;8.45;;
1747;SDS011;871;47.034;15.394;2022-12-13T08:57:10;46.15;;;7.50;;
1747;SDS011;871;47.034;15.394;2022-12-13T08:59:36;50.65;;;8.50;;
1747;SDS011;871;47.034;15.394;2022-12-13T09:02:02;47.72;;;7.60;;
1747;SDS011;871;47.034;15.394;2022-12-13T09:04:28;62.20;;;8.30;;
1747;SDS011;871;47.034;15.394;2022-12-13T09:06:55;48.63;;;8.63;;
1747;SDS011;871;47.034;15.394;2022-12-13T09:09:21;48.28;;;9.57;;
1747;SDS011;871;47.034;15.394;2022-12-13T09:11:47;48.10;;;8.55;;
1747;SDS011;871;47.034;15.394;2022-12-13T09:14:13;42.50;;;7.50;;
1747;SDS011;871;47.034;15.394;2022-12-13T09:16:39;44.97;;;8.38;;
1747;SDS011;871;47.034;15.394;2022-12-13T09:19:05;47.65;;;8.32;;
1747;SDS011;871;47.034;15.394;2022-12-13T09:21:31;45.67;;;7.35;;
1747;SDS011;871;47.034;15.394;2022-12-13T09:23:58;46.40;;;8.73;;
1747;SDS011;871;47.034;15.394;2022-12-13T09:26:24;43.15;;;7.25;;
1747;SDS011;871;47.034;15.394;2022-12-13T09:28:50;48.17;;;7.97;;
1747;SDS011;871;47.034;15.394;2022-12-13T09:31:17;50.08;;;9.50;;
1747;SDS011;871;47.034;15.394;2022-12-13T09:33:44;44.47;;;7.22;;
1747;SDS011;871;47.034;15.394;2022-12-13T09:36:11;48.45;;;7.85;;
1747;SDS011;871;47.034;15.394;2022-12-13T09:38:38;47.80;;;9.77;;
1747;SDS011;871;47.034;15.394;2022-12-13T09:41:21;46.78;;;9.25;;
1747;SDS011;871;47.034;15.394;2022-12-13T09:43:48;44.25;;;8.63;;
1747;SDS011;871;47.034;15.394;2022-12-13T09:46:22;50.25;;;9.85;;
1747;SDS011;871;47.034;15.394;2022-12-13T09:48:51;49.05;;;10.00;;
1747;SDS011;871;47.034;15.394;2022-12-13T09:51:18;65.57;;;10.68;;
1747;SDS011;871;47.034;15.394;2022-12-13T09:53:46;45.83;;;9.52;;
1747;SDS011;871;47.034;15.394;2022-12-13T09:56:14;53.60;;;10.38;;
1747;SDS011;871;47.034;15.394;2022-12-13T09:58:41;46.60;;;9.77;;
1747;SDS011;871;47.034;15.394;2022-12-13T10:01:09;48.58;;;9.80;;
1747;SDS011;871;47.034;15.394;2022-12-13T10:03:38;46.17;;;8.27;;
1747;SDS011;871;47.034;15.394;2022-12-13T10:06:16;48.45;;;8.57;;
1747;SDS011;871;47.034;15.394;2022-12-13T10:08:46;50.63;;;8.60;;
1747;SDS011;871;47.034;15.394;2022-12-13T10:11:14;42.40;;;6.68;;
1747;SDS011;871;47.034;15.394;2022-12-13T10:13:41;44.13;;;7.72;;
1747;SDS011;871;47.034;15.394;2022-12-13T10:16:17;46.50;;;7.70;;
1747;SDS011;871;47.034;15.394;2022-12-13T10:18:45;50.13;;;8.38;;
1747;SDS011;871;47.034;15.394;2022-12-13T10:21:26;45.55;;;7.65;;
1747;SDS011;871;47.034;15.394;2022-12-13T10:23:53;44.20;;;6.88;;
1747;SDS011;871;47.034;15.394;2022-12-13T10:26:19;42.05;;;6.65;;
1747;SDS011;871;47.034;15.394;2022-12-13T10:28:45;44.10;;;6.75;;
1747;SDS011;871;47.034;15.394;2022-12-13T10:31:15;45.22;;;6.65;;
1747;SDS011;871;47.034;15.394;2022-12-13T10:33:47;41.95;;;6.63;;
1747;SDS011;871;47.034;15.394;2022-12-13T10:36:27;44.63;;;6.88;;
1747;SDS011;871;47.034;15.394;2022-12-13T10:38:54;49.95;;;7.47;;
1747;SDS011;871;47.034;15.394;2022-12-13T10:41:31;46.47;;;8.40;;
1747;SDS011;871;47.034;15.394;2022-12-13T10:46:32;48.50;;;9.52;;
1747;SDS011;871;47.034;15.394;2022-12-13T10:48:59;46.08;;;7.15;;
1747;SDS011;871;47.034;15.394;2022-12-13T10:51:25;46.00;;;6.60;;
1747;SDS011;871;47.034;15.394;2022-12-13T10:53:53;41.67;;;6.28;;
1747;SDS011;871;47.034;15.394;2022-12-13T10:56:21;42.17;;;5.97;;
1747;SDS011;871;47.034;15.394;2022-12-13T10:58:48;50.03;;;6.18;;
1747;SDS011;871;47.034;15.394;2022-12-13T11:04:01;45.05;;;6.15;;
1747;SDS011;871;47.034;15.394;2022-12-13T11:06:43;51.35;;;7.18;;
1747;SDS011;871;47.034;15.394;2022-12-13T11:09:20;43.45;;;6.85;;
1747;SDS011;871;47.034;15.394;2022-12-13T11:11:51;44.08;;;7.32;;
1747;SDS011;871;47.034;15.394;2022-12-13T11:14:19;45.60;;;5.70;;
1747;SDS011;871;47.034;15.394;2022-12-13T11:16:50;43.20;;;5.78;;
1747;SDS011;871;47.034;15.394;2022-12-13T11:19:21;47.97;;;5.90;;
1747;SDS011;871;47.034;15.394;2022-12-13T11:21:49;43.03;;;6.60;;
1747;SDS011;871;47.034;15.394;2022-12-13T11:24:29;41.92;;;5.40;;
1747;SDS011;871;47.034;15.394;2022-12-13T11:26:57;42.90;;;5.63;;
1747;SDS011;871;47.034;15.394;2022-12-13T11:29:29;42.85;;;5.13;;
1747;SDS011;871;47.034;15.394;2022-12-13T11:37:21;40.30;;;5.78;;
1747;SDS011;871;47.034;15.394;2022-12-13T11:39:57;45.55;;;5.63;;
1747;SDS011;871;47.034;15.394;2022-12-13T11:42:39;43.88;;;6.47;;
1747;SDS011;871;47.034;15.394;2022-12-13T11:45:15;39.72;;;4.97;;
1747;SDS011;871;47.034;15.394;2022-12-13T11:47:54;40.22;;;5.40;;
1747;SDS011;871;47.034;15.394;2022-12-13T11:50:27;43.50;;;6.53;;
1747;SDS011;871;47.034;15.394;2022-12-13T11:52:55;42.63;;;6.47;;
1747;SDS011;871;47.034;15.394;2022-12-13T11:55:45;42.22;;;6.22;;
1747;SDS011;871;47.034;15.394;2022-12-13T11:58:11;41.58;;;5.50;;
1747;SDS011;871;47.034;15.394;2022-12-13T12:00:40;40.55;;;4.85;;
1747;SDS011;871;47.034;15.394;2022-12-13T12:05:38;41.75;;;4.60;;
1747;SDS011;871;47.034;15.394;2022-12-13T12:08:20;41.03;;;5.32;;
1747;SDS011;871;47.034;15.394;2022-12-13T12:10:50;39.70;;;5.05;;
1747;SDS011;871;47.034;15.394;2022-12-13T12:13:33;38.78;;;4.32;;
1747;SDS011;871;47.034;15.394;2022-12-13T12:16:20;45.42;;;4.50;;
1747;SDS011;871;47.034;15.394;2022-12-13T12:18:49;38.60;;;4.30;;
1747;SDS011;871;47.034;15.394;2022-12-13T12:24:07;43.08;;;5.55;;
1747;SDS011;871;47.034;15.394;2022-12-13T12:26:40;42.58;;;4.55;;
1747;SDS011;871;47.034;15.394;2022-12-13T12:29:18;43.25;;;4.85;;
1747;SDS011;871;47.034;15.394;2022-12-13T12:34:44;39.75;;;5.60;;
1747;SDS011;871;47.034;15.394;2022-12-13T12:42:20;41.40;;;5.38;;
1747;SDS011;871;47.034;15.394;2022-12-13T12:47:22;38.53;;;4.00;;
1747;SDS011;871;47.034;15.394;2022-12-13T13:00:53;39.88;;;4.90;;
1747;SDS011;871;47.034;15.394;2022-12-13T13:03:22;39.47;;;4.93;;
1747;SDS011;871;47.034;15.394;2022-12-13T13:08:22;41.25;;;5.85;;
1747;SDS011;871;47.034;15.394;2022-12-13T13:10:50;39.45;;;4.53;;
1747;SDS011;871;47.034;15.394;2022-12-13T13:13:36;42.08;;;4.80;;
1747;SDS011;871;47.034;15.394;2022-12-13T13:18:53;39.28;;;4.00;;
1747;SDS011;871;47.034;15.394;2022-12-13T13:24:12;39.17;;;4.60;;
1747;SDS011;871;47.034;15.394;2022-12-13T13:26:38;40.10;;;5.15;;
1747;SDS011;871;47.034;15.394;2022-12-13T13:34:27;39.03;;;4.68;;
1747;SDS011;871;47.034;15.394;2022-12-13T13:36:54;39.40;;;4.95;;
1747;SDS011;871;47.034;15.394;2022-12-13T13:42:18;38.70;;;4.25;;
1747;SDS011;871;47.034;15.394;2022-12-13T13:47:27;44.30;;;4.70;;
1747;SDS011;871;47.034;15.394;2022-12-13T14:21:16;38.95;;;4.60;;
1747;SDS011;871;47.034;15.394;2022-12-13T14:28:53;45.15;;;4.85;;
1747;SDS011;871;47.034;15.394;2022-12-13T14:33:54;45.05;;;6.35;;
1747;SDS011;871;47.034;15.394;2022-12-13T14:36:31;40.20;;;5.65;;
1747;SDS011;871;47.034;15.394;2022-12-13T14:39:16;43.50;;;6.30;;
1747;SDS011;871;47.034;15.394;2022-12-13T14:41:47;43.92;;;6.53;;
1747;SDS011;871;47.034;15.394;2022-12-13T14:44:21;45.22;;;5.88;;
1747;SDS011;871;47.034;15.394;2022-12-13T14:46:49;40.80;;;5.25;;
1747;SDS011;871;47.034;15.394;2022-12-13T14:49:15;43.03;;;5.50;;
1747;SDS011;871;47.034;15.394;2022-12-13T14:51:41;41.55;;;5.30;;
1747;SDS011;871;47.034;15.394;2022-12-13T14:54:13;41.88;;;5.55;;
1747;SDS011;871;47.034;15.394;2022-12-13T14:56:58;41.42;;;5.63;;
1747;SDS011;871;47.034;15.394;2022-12-13T14:59:26;46.65;;;6.22;;
1747;SDS011;871;47.034;15.394;2022-12-13T15:02:00;44.78;;;7.00;;
1747;SDS011;871;47.034;15.394;2022-12-13T15:04:31;45.60;;;6.70;;
1747;SDS011;871;47.034;15.394;2022-12-13T15:07:11;47.03;;;8.00;;
1747;SDS011;871;47.034;15.394;2022-12-13T15:09:39;43.03;;;7.07;;
1747;SDS011;871;47.034;15.394;2022-12-13T15:12:10;43.78;;;6.53;;
1747;SDS011;871;47.034;15.394;2022-12-13T15:14:36;44.40;;;7.13;;
1747;SDS011;871;47.034;15.394;2022-12-13T15:17:03;45.05;;;7.47;;
1747;SDS011;871;47.034;15.394;2022-12-13T15:19:29;44.38;;;7.10;;
1747;SDS011;871;47.034;15.394;2022-12-13T15:21:57;44.65;;;7.30;;
1747;SDS011;871;47.034;15.394;2022-12-13T15:24:28;49.53;;;10.23;;
1747;SDS011;871;47.034;15.394;2022-12-13T15:26:56;45.92;;;7.65;;
1747;SDS011;871;47.034;15.394;2022-12-13T15:29:23;44.15;;;7.30;;
1747;SDS011;871;47.034;15.394;2022-12-13T15:31:50;44.38;;;6.50;;
1747;SDS011;871;47.034;15.394;2022-12-13T15:34:29;44.55;;;7.93;;
1747;SDS011;871;47.034;15.394;2022-12-13T15:36:57;41.63;;;6.70;;
1747;SDS011;871;47.034;15.394;2022-12-13T15:39:24;45.85;;;7.50;;
1747;SDS011;871;47.034;15.394;2022-12-13T15:41:53;45.95;;;6.70;;
1747;SDS011;871;47.034;15.394;2022-12-13T15:44:27;47.63;;;7.88;;
1747;SDS011;871;47.034;15.394;2022-12-13T15:46:57;42.70;;;7.20;;
1747;SDS011;871;47.034;15.394;2022-12-13T15:52:03;44.38;;;8.10;;
1747;SDS011;871;47.034;15.394;2022-12-13T15:54:30;48.75;;;9.27;;
1747;SDS011;871;47.034;15.394;2022-12-13T15:56:59;44.20;;;7.93;;
1747;SDS011;871;47.034;15.394;2022-12-13T15:59:27;44.45;;;8.20;;
1747;SDS011;871;47.034;15.394;2022-12-13T16:01:54;54.90;;;8.63;;
1747;SDS011;871;47.034;15.394;2022-12-13T16:04:24;48.30;;;11.30;;
1747;SDS011;871;47.034;15.394;2022-12-13T16:06:51;52.15;;;11.75;;
1747;SDS011;871;47.034;15.394;2022-12-13T16:09:20;50.00;;;11.07;;
1747;SDS011;871;47.034;15.394;2022-12-13T16:11:48;50.45;;;12.90;;
1747;SDS011;871;47.034;15.394;2022-12-13T16:14:38;55.17;;;13.05;;
1747;SDS011;871;47.034;15.394;2022-12-13T16:17:18;52.45;;;12.45;;
1747;SDS011;871;47.034;15.394;2022-12-13T16:19:46;54.50;;;13.43;;
1747;SDS011;871;47.034;15.394;2022-12-13T16:22:12;57.17;;;16.80;;
1747;SDS011;871;47.034;15.394;2022-12-13T16:24:39;54.80;;;13.48;;
1747;SDS011;871;47.034;15.394;2022-12-13T16:27:05;54.47;;;14.65;;
1747;SDS011;871;47.034;15.394;2022-12-13T16:29:31;52.90;;;12.70;;
1747;SDS011;871;47.034;15.394;2022-12-13T16:31:57;48.25;;;10.95;;
1747;SDS011;871;47.034;15.394;2022-12-13T16:34:23;48.42;;;10.13;;
1747;SDS011;871;47.034;15.394;2022-12-13T16:36:49;50.00;;;9.98;;
1747;SDS011;871;47.034;15.394;2022-12-13T16:39:16;49.10;;;11.88;;
1747;SDS011;871;47.034;15.394;2022-12-13T16:41:43;44.22;;;9.50;;
1747;SDS011;871;47.034;15.394;2022-12-13T16:44:18;47.75;;;9.02;;
1747;SDS011;871;47.034;15.394;2022-12-13T16:46:44;48.17;;;9.07;;
1747;SDS011;871;47.034;15.394;2022-12-13T16:49:24;45.72;;;8.90;;
1747;SDS011;871;47.034;15.394;2022-12-13T16:51:50;51.85;;;9.45;;
1747;SDS011;871;47.034;15.394;2022-12-13T16:54:20;47.20;;;8.95;;
1747;SDS011;871;47.034;15.394;2022-12-13T16:56:48;48.70;;;10.48;;
1747;SDS011;871;47.034;15.394;2022-12-13T16:59:15;53.05;;;10.80;;
1747;SDS011;871;47.034;15.394;2022-12-13T17:01:43;61.67;;;11.45;;
1747;SDS011;871;47.034;15.394;2022-12-13T17:04:10;56.58;;;9.75;;
1747;SDS011;871;47.034;15.394;2022-12-13T17:06:36;53.20;;;9.45;;
1747;SDS011;871;47.034;15.394;2022-12-13T17:09:02;57.50;;;12.13;;
1747;SDS011;871;47.034;15.394;2022-12-13T17:11:32;56.80;;;12.18;;
1747;SDS011;871;47.034;15.394;2022-12-13T17:14:03;47.80;;;9.23;;
1747;SDS011;871;47.034;15.394;2022-12-13T17:16:29;46.20;;;9.30;;
1747;SDS011;871;47.034;15.394;2022-12-13T17:18:56;52.35;;;11.90;;
1747;SDS011;871;47.034;15.394;2022-12-13T17:21:23;54.30;;;12.13;;
1747;SDS011;871;47.034;15.394;2022-12-13T17:23:53;55.22;;;13.05;;
1747;SDS011;871;47.034;15.394;2022-12-13T17:26:20;46.65;;;10.35;;
1747;SDS011;871;47.034;15.394;2022-12-13T17:28:46;47.08;;;10.35;;
1747;SDS011;871;47.034;15.394;2022-12-13T17:31:13;58.00;;;13.30;;
1747;SDS011;871;47.034;15.394;2022-12-13T17:33:40;51.90;;;11.35;;
1747;SDS011;871;47.034;15.394;2022-12-13T17:36:07;57.15;;;13.20;;
1747;SDS011;871;47.034;15.394;2022-12-13T17:38:33;57.47;;;13.40;;
1747;SDS011;871;47.034;15.394;2022-12-13T17:40:59;60.10;;;16.15;;
1747;SDS011;871;47.034;15.394;2022-12-13T17:43:26;61.22;;;15.13;;
1747;SDS011;871;47.034;15.394;2022-12-13T17:45:53;58.42;;;16.30;;
1747;SDS011;871;47.034;15.394;2022-12-13T17:48:20;61.55;;;15.60;;
1747;SDS011;871;47.034;15.394;2022-12-13T17:50:46;65.80;;;18.25;;
1747;SDS011;871;47.034;15.394;2022-12-13T17:53:14;59.33;;;16.65;;
1747;SDS011;871;47.034;15.394;2022-12-13T17:55:40;62.40;;;16.48;;
1747;SDS011;871;47.034;15.394;2022-12-13T17:58:06;53.10;;;14.68;;
1747;SDS011;871;47.034;15.394;2022-12-13T18:00:36;58.50;;;16.02;;
1747;SDS011;871;47.034;15.394;2022-12-13T18:03:03;62.72;;;14.73;;
1747;SDS011;871;47.034;15.394;2022-12-13T18:05:30;59.30;;;14.40;;
1747;SDS011;871;47.034;15.394;2022-12-13T18:07:57;55.95;;;15.30;;
1747;SDS011;871;47.034;15.394;2022-12-13T18:10:24;56.70;;;14.98;;
1747;SDS011;871;47.034;15.394;2022-12-13T18:12:50;53.33;;;13.95;;
1747;SDS011;871;47.034;15.394;2022-12-13T18:15:16;55.00;;;13.55;;
1747;SDS011;871;47.034;15.394;2022-12-13T18:17:42;53.28;;;13.38;;
1747;SDS011;871;47.034;15.394;2022-12-13T18:20:09;62.28;;;15.75;;
1747;SDS011;871;47.034;15.394;2022-12-13T18:22:35;53.35;;;15.05;;
1747;SDS011;871;47.034;15.394;2022-12-13T18:25:03;52.40;;;12.23;;
1747;SDS011;871;47.034;15.394;2022-12-13T18:27:29;55.45;;;14.70;;
1747;SDS011;871;47.034;15.394;2022-12-13T18:29:58;53.67;;;13.93;;
1747;SDS011;871;47.034;15.394;2022-12-13T18:32:24;60.03;;;15.13;;
1747;SDS011;871;47.034;15.394;2022-12-13T18:34:51;55.63;;;16.15;;
1747;SDS011;871;47.034;15.394;2022-12-13T18:37:17;59.47;;;17.17;;
1747;SDS011;871;47.034;15.394;2022-12-13T18:39:43;68.85;;;16.52;;
1747;SDS011;871;47.034;15.394;2022-12-13T18:42:09;56.90;;;16.17;;
1747;SDS011;871;47.034;15.394;2022-12-13T18:44:35;58.20;;;16.90;;
1747;SDS011;871;47.034;15.394;2022-12-13T18:47:02;61.03;;;16.33;;
1747;SDS011;871;47.034;15.394;2022-12-13T18:49:28;56.20;;;15.63;;
1747;SDS011;871;47.034;15.394;2022-12-13T18:51:55;57.10;;;17.10;;
1747;SDS011;871;47.034;15.394;2022-12-13T18:54:21;60.42;;;14.98;;
1747;SDS011;871;47.034;15.394;2022-12-13T18:56:47;55.78;;;15.05;;
1747;SDS011;871;47.034;15.394;2022-12-13T18:59:14;55.28;;;15.57;;
1747;SDS011;871;47.034;15.394;2022-12-13T19:01:40;56.75;;;14.60;;
1747;SDS011;871;47.034;15.394;2022-12-13T19:04:06;58.03;;;16.08;;
1747;SDS011;871;47.034;15.394;2022-12-13T19:06:35;59.17;;;15.32;;
1747;SDS011;871;47.034;15.394;2022-12-13T19:09:01;60.20;;;16.35;;
1747;SDS011;871;47.034;15.394;2022-12-13T19:11:30;50.78;;;13.90;;
1747;SDS011;871;47.034;15.394;2022-12-13T19:13:56;50.40;;;12.90;;
1747;SDS011;871;47.034;15.394;2022-12-13T19:16:25;63.90;;;13.70;;
1747;SDS011;871;47.034;15.394;2022-12-13T19:18:52;56.38;;;13.88;;
1747;SDS011;871;47.034;15.394;2022-12-13T19:21:21;54.33;;;12.25;;
1747;SDS011;871;47.034;15.394;2022-12-13T19:23:47;51.78;;;11.68;;
1747;SDS011;871;47.034;15.394;2022-12-13T19:26:14;57.38;;;13.07;;
1747;SDS011;871;47.034;15.394;2022-12-13T19:28:42;51.25;;;11.80;;
1747;SDS011;871;47.034;15.394;2022-12-13T19:31:12;53.38;;;11.88;;
1747;SDS011;871;47.034;15.394;2022-12-13T19:33:40;48.33;;;10.95;;
1747;SDS011;871;47.034;15.394;2022-12-13T19:36:09;53.95;;;11.32;;
1747;SDS011;871;47.034;15.394;2022-12-13T19:38:36;47.47;;;10.50;;
1747;SDS011;871;47.034;15.394;2022-12-13T19:41:06;53.45;;;11.10;;
1747;SDS011;871;47.034;15.394;2022-12-13T19:43:33;67.03;;;12.75;;
1747;SDS011;871;47.034;15.394;2022-12-13T19:45:59;58.58;;;11.40;;
1747;SDS011;871;47.034;15.394;2022-12-13T19:48:29;51.00;;;10.65;;
1747;SDS011;871;47.034;15.394;2022-12-13T19:50:58;53.60;;;11.02;;
1747;SDS011;871;47.034;15.394;2022-12-13T19:53:26;54.03;;;11.15;;
1747;SDS011;871;47.034;15.394;2022-12-13T19:55:53;49.30;;;10.68;;
1747;SDS011;871;47.034;15.394;2022-12-13T19:58:20;52.92;;;11.48;;
1747;SDS011;871;47.034;15.394;2022-12-13T20:00:47;51.28;;;11.95;;
1747;SDS011;871;47.034;15.394;2022-12-13T20:03:14;51.05;;;11.70;;
1747;SDS011;871;47.034;15.394;2022-12-13T20:05:41;60.90;;;12.73;;
1747;SDS011;871;47.034;15.394;2022-12-13T20:08:07;49.05;;;12.13;;
1747;SDS011;871;47.034;15.394;2022-12-13T20:10:34;55.05;;;12.27;;
1747;SDS011;871;47.034;15.394;2022-12-13T20:13:03;52.13;;;11.88;;
1747;SDS011;871;47.034;15.394;2022-12-13T20:15:30;55.85;;;12.38;;
1747;SDS011;871;47.034;15.394;2022-12-13T20:17:58;52.65;;;13.32;;
1747;SDS011;871;47.034;15.394;2022-12-13T20:20:28;57.03;;;11.90;;
1747;SDS011;871;47.034;15.394;2022-12-13T20:22:55;50.85;;;12.55;;
1747;SDS011;871;47.034;15.394;2022-12-13T20:25:22;51.20;;;12.45;;
1747;SDS011;871;47.034;15.394;2022-12-13T20:27:48;58.03;;;12.75;;
1747;SDS011;871;47.034;15.394;2022-12-13T20:30:16;55.15;;;11.90;;
1747;SDS011;871;47.034;15.394;2022-12-13T20:32:43;53.63;;;11.63;;
1747;SDS011;871;47.034;15.394;2022-12-13T20:35:09;52.42;;;12.13;;
1747;SDS011;871;47.034;15.394;2022-12-13T20:37:42;51.30;;;11.95;;
1747;SDS011;871;47.034;15.394;2022-12-13T20:40:09;53.75;;;12.90;;
1747;SDS011;871;47.034;15.394;2022-12-13T20:42:36;55.72;;;13.02;;
1747;SDS011;871;47.034;15.394;2022-12-13T20:45:03;57.35;;;12.13;;
1747;SDS011;871;47.034;15.394;2022-12-13T20:47:30;57.85;;;12.90;;
1747;SDS011;871;47.034;15.394;2022-12-13T20:49:57;54.75;;;11.63;;
1747;SDS011;871;47.034;15.394;2022-12-13T20:52:26;63.63;;;14.48;;
1747;SDS011;871;47.034;15.394;2022-12-13T20:54:52;51.72;;;12.80;;
1747;SDS011;871;47.034;15.394;2022-12-13T20:57:20;53.63;;;12.48;;
1747;SDS011;871;47.034;15.394;2022-12-13T20:59:48;58.38;;;14.65;;
1747;SDS011;871;47.034;15.394;2022-12-13T21:02:15;58.83;;;14.32;;
1747;SDS011;871;47.034;15.394;2022-12-13T21:04:41;56.67;;;13.18;;
1747;SDS011;871;47.034;15.394;2022-12-13T21:07:08;55.92;;;13.82;;
1747;SDS011;871;47.034;15.394;2022-12-13T21:09:34;61.47;;;14.27;;
1747;SDS011;871;47.034;15.394;2022-12-13T21:12:00;64.57;;;14.90;;
1747;SDS011;871;47.034;15.394;2022-12-13T21:14:27;55.10;;;13.00;;
1747;SDS011;871;47.034;15.394;2022-12-13T21:16:55;56.92;;;13.15;;
1747;SDS011;871;47.034;15.394;2022-12-13T21:19:22;59.83;;;15.27;;
1747;SDS011;871;47.034;15.394;2022-12-13T21:21:50;56.17;;;13.65;;
1747;SDS011;871;47.034;15.394;2022-12-13T21:24:17;62.15;;;15.43;;
1747;SDS011;871;47.034;15.394;2022-12-13T21:26:44;65.15;;;14.95;;
1747;SDS011;871;47.034;15.394;2022-12-13T21:29:11;55.22;;;13.65;;
1747;SDS011;871;47.034;15.394;2022-12-13T21:31:41;54.80;;;13.50;;
1747;SDS011;871;47.034;15.394;2022-12-13T21:34:08;56.75;;;14.40;;
1747;SDS011;871;47.034;15.394;2022-12-13T21:36:38;52.00;;;12.43;;
1747;SDS011;871;47.034;15.394;2022-12-13T21:39:09;51.78;;;11.88;;
1747;SDS011;871;47.034;15.394;2022-12-13T21:41:39;56.38;;;12.18;;